createdAt,value
2019-04-30T00:00:34.620Z,98.040771
2019-04-30T00:01:33.579Z,98.040771
2019-04-30T00:02:21.891Z,97.937012
2019-04-30T00:02:35.485Z,97.937012
2019-04-30T00:03:35.087Z,97.937012
2019-04-30T00:04:35.080Z,97.833252
2019-04-30T00:05:35.141Z,97.729492
2019-04-30T00:06:35.363Z,97.528076
2019-04-30T00:07:33.559Z,97.424316
2019-04-30T00:08:21.902Z,97.424316
2019-04-30T00:08:35.338Z,97.320557
2019-04-30T00:09:35.025Z,97.265625
2019-04-30T00:10:36.696Z,97.161865
2019-04-30T00:11:33.151Z,97.161865
2019-04-30T00:12:35.820Z,97.161865
2019-04-30T00:13:33.504Z,97.265625
2019-04-30T00:14:21.877Z,97.265625
2019-04-30T00:14:38.473Z,97.265625
2019-04-30T00:15:32.883Z,97.265625
2019-04-30T00:16:36.127Z,97.369385
2019-04-30T00:17:33.223Z,97.369385
2019-04-30T00:18:35.784Z,97.424316
2019-04-30T00:19:33.600Z,97.424316
2019-04-30T00:20:35.073Z,97.424316
2019-04-30T00:21:32.948Z,97.528076
2019-04-30T00:22:34.257Z,97.528076
2019-04-30T00:23:26.214Z,97.528076
2019-04-30T00:24:35.328Z,97.424316
2019-04-30T00:25:24.784Z,97.570801
2019-04-30T00:25:35.146Z,97.467041
2019-04-30T00:26:32.846Z,97.570801
2019-04-30T00:27:32.994Z,97.570801
2019-04-30T00:28:32.162Z,97.570801
2019-04-30T00:29:43.200Z,97.674561
2019-04-30T00:30:43.863Z,97.674561
2019-04-30T00:31:44.618Z,97.674561
2019-04-30T00:32:31.896Z,97.674561
2019-04-30T00:32:45.415Z,97.674561
2019-04-30T00:33:42.899Z,97.467041
2019-04-30T00:34:43.097Z,97.265625
2019-04-30T00:35:42.576Z,97.265625
2019-04-30T00:36:42.746Z,97.265625
2019-04-30T00:37:42.890Z,97.265625
2019-04-30T00:38:44.500Z,97.265625
2019-04-30T00:39:44.068Z,97.265625
2019-04-30T00:40:45.006Z,97.161865
2019-04-30T00:41:47.292Z,97.161865
2019-04-30T00:42:31.878Z,97.058105
2019-04-30T00:42:45.643Z,97.058105
2019-04-30T00:43:47.779Z,97.161865
2019-04-30T00:44:43.054Z,97.161865
2019-04-30T00:45:44.640Z,97.265625
2019-04-30T00:46:43.416Z,97.265625
2019-04-30T00:47:44.363Z,97.265625
2019-04-30T00:48:42.763Z,97.265625
2019-04-30T00:49:42.918Z,97.161865
2019-04-30T00:50:43.099Z,97.161865
2019-04-30T00:51:45.271Z,97.265625
2019-04-30T00:52:43.403Z,97.265625
2019-04-30T00:53:43.761Z,97.265625
2019-04-30T00:54:31.905Z,97.369385
2019-04-30T00:54:45.196Z,97.265625
2019-04-30T00:55:44.831Z,97.265625
2019-04-30T00:56:42.122Z,97.369385
2019-04-30T00:57:44.022Z,97.467041
2019-04-30T00:58:55.412Z,97.570801
2019-04-30T00:59:54.843Z,97.570801
2019-04-30T01:00:41.812Z,97.674561
2019-04-30T01:00:55.403Z,97.674561
2019-04-30T01:01:43.467Z,97.77832
2019-04-30T01:01:53.827Z,97.77832
2019-04-30T01:02:53.004Z,97.88208
2019-04-30T01:03:52.177Z,97.98584
2019-04-30T01:05:05.142Z,97.98584
2019-04-30T01:06:05.263Z,97.98584
2019-04-30T01:07:05.098Z,97.924805
2019-04-30T01:08:02.702Z,97.821045
2019-04-30T01:08:52.028Z,97.821045
2019-04-30T01:09:05.281Z,97.821045
2019-04-30T01:10:04.975Z,97.821045
2019-04-30T01:11:04.462Z,97.717285
2019-04-30T01:12:05.347Z,97.619629
2019-04-30T01:13:07.890Z,97.619629
2019-04-30T01:14:02.762Z,97.467041
2019-04-30T01:15:06.369Z,97.467041
2019-04-30T01:16:02.137Z,97.515869
2019-04-30T01:17:03.667Z,97.515869
2019-04-30T01:18:13.364Z,97.619629
2019-04-30T01:19:27.142Z,97.570801
2019-04-30T01:20:01.861Z,97.570801
2019-04-30T01:20:13.707Z,97.570801
2019-04-30T01:21:02.857Z,97.467041
2019-04-30T01:21:13.881Z,97.467041
2019-04-30T01:22:13.114Z,97.467041
2019-04-30T01:23:12.298Z,97.369385
2019-04-30T01:24:27.473Z,97.467041
2019-04-30T01:25:22.489Z,97.467041
2019-04-30T01:26:22.945Z,97.467041
2019-04-30T01:27:21.882Z,97.467041
2019-04-30T01:27:33.718Z,97.467041
2019-04-30T01:28:24.170Z,97.369385
2019-04-30T01:28:33.874Z,97.369385
2019-04-30T01:29:38.712Z,97.369385
2019-04-30T01:30:32.258Z,97.369385
2019-04-30T01:31:37.297Z,97.369385
2019-04-30T01:32:43.487Z,97.369385
2019-04-30T01:33:34.432Z,97.369385
2019-04-30T01:33:43.666Z,97.369385
2019-04-30T01:34:44.115Z,97.369385
2019-04-30T01:35:42.018Z,97.369385
2019-04-30T01:35:53.856Z,97.369385
2019-04-30T01:36:43.399Z,97.369385
2019-04-30T01:37:53.242Z,97.369385
2019-04-30T01:38:52.619Z,97.369385
2019-04-30T01:40:08.016Z,97.467041
2019-04-30T01:41:03.596Z,97.467041
2019-04-30T01:42:06.959Z,97.369385
2019-04-30T01:43:01.972Z,97.369385
2019-04-30T01:43:13.805Z,97.265625
2019-04-30T01:44:03.687Z,97.265625
2019-04-30T01:45:13.204Z,97.161865
2019-04-30T01:46:13.940Z,97.058105
2019-04-30T01:47:27.567Z,97.058105
2019-04-30T01:48:22.622Z,97.058105
2019-04-30T01:49:25.579Z,97.058105
2019-04-30T01:49:41.928Z,97.058105
2019-04-30T01:50:21.970Z,97.058105
2019-04-30T01:50:38.021Z,97.058105
2019-04-30T01:51:32.978Z,97.058105
2019-04-30T01:52:35.056Z,97.058105
2019-04-30T01:53:32.376Z,96.954346
2019-04-30T01:54:43.386Z,96.850586
2019-04-30T01:55:42.604Z,96.850586
2019-04-30T01:56:53.627Z,96.850586
2019-04-30T01:57:52.847Z,96.850586
2019-04-30T01:58:52.052Z,96.850586
2019-04-30T01:59:03.884Z,96.954346
2019-04-30T02:00:03.090Z,96.954346
2019-04-30T02:01:02.279Z,96.954346
2019-04-30T02:02:13.317Z,97.20459
2019-04-30T02:03:12.525Z,97.30835
2019-04-30T02:04:23.557Z,97.515869
2019-04-30T02:05:22.745Z,97.619629
2019-04-30T02:06:21.958Z,97.717285
2019-04-30T02:06:33.781Z,97.717285
2019-04-30T02:07:32.967Z,97.821045
2019-04-30T02:08:32.149Z,97.821045
2019-04-30T02:09:43.210Z,98.028564
2019-04-30T02:10:43.394Z,98.028564
2019-04-30T02:11:42.590Z,98.132324
2019-04-30T02:12:53.665Z,98.132324
2019-04-30T02:13:52.844Z,98.132324
2019-04-30T02:14:52.039Z,98.132324
2019-04-30T02:15:03.875Z,98.132324
2019-04-30T02:16:03.086Z,98.132324
2019-04-30T02:17:02.285Z,98.132324
2019-04-30T02:18:13.346Z,98.132324
2019-04-30T02:19:12.578Z,98.028564
2019-04-30T02:20:23.621Z,98.028564
2019-04-30T02:21:22.820Z,98.028564
2019-04-30T02:22:21.995Z,98.028564
2019-04-30T02:22:33.832Z,98.028564
2019-04-30T02:23:33.045Z,97.924805
2019-04-30T02:24:32.268Z,97.821045
2019-04-30T02:25:43.288Z,97.717285
2019-04-30T02:26:43.454Z,97.717285
2019-04-30T02:27:42.641Z,97.717285
2019-04-30T02:28:41.843Z,97.717285
2019-04-30T02:28:53.709Z,97.717285
2019-04-30T02:29:52.913Z,97.717285
2019-04-30T02:30:52.111Z,97.717285
2019-04-30T02:32:03.150Z,97.717285
2019-04-30T02:33:02.343Z,97.717285
2019-04-30T02:34:13.392Z,97.619629
2019-04-30T02:35:12.581Z,97.515869
2019-04-30T02:36:23.619Z,97.412109
2019-04-30T02:37:22.798Z,97.30835
2019-04-30T02:38:21.978Z,97.10083
2019-04-30T02:39:22.138Z,97.003174
2019-04-30T02:40:33.197Z,97.003174
2019-04-30T02:41:32.399Z,97.10083
2019-04-30T02:42:43.402Z,97.10083
2019-04-30T02:43:42.588Z,97.003174
2019-04-30T02:44:53.583Z,96.899414
2019-04-30T02:45:41.989Z,96.899414
2019-04-30T02:45:53.824Z,96.899414
2019-04-30T02:46:53.015Z,96.899414
2019-04-30T02:47:52.203Z,96.795654
2019-04-30T02:49:03.254Z,96.795654
2019-04-30T02:50:13.514Z,96.795654
2019-04-30T02:51:13.469Z,96.899414
2019-04-30T02:52:01.803Z,96.899414
2019-04-30T02:52:13.639Z,96.899414
2019-04-30T02:53:12.813Z,96.795654
2019-04-30T02:54:12.024Z,96.795654
2019-04-30T02:54:24.574Z,96.795654
2019-04-30T02:55:23.105Z,96.899414
2019-04-30T02:56:25.892Z,97.003174
2019-04-30T02:57:33.315Z,97.10083
2019-04-30T02:58:32.488Z,97.20459
2019-04-30T02:59:43.542Z,97.30835
2019-04-30T03:00:42.738Z,97.412109
2019-04-30T03:01:41.925Z,97.515869
2019-04-30T03:01:53.772Z,97.515869
2019-04-30T03:02:52.965Z,97.619629
2019-04-30T03:03:52.153Z,97.619629
2019-04-30T03:05:03.276Z,97.717285
2019-04-30T03:06:02.434Z,97.821045
2019-04-30T03:07:02.606Z,97.821045
2019-04-30T03:08:13.614Z,97.821045
2019-04-30T03:09:12.823Z,97.821045
2019-04-30T03:10:12.008Z,97.924805
2019-04-30T03:10:23.854Z,97.924805
2019-04-30T03:11:23.017Z,97.924805
2019-04-30T03:12:22.197Z,97.924805
2019-04-30T03:13:33.254Z,97.973633
2019-04-30T03:14:32.472Z,98.071289
2019-04-30T03:15:43.466Z,98.132324
2019-04-30T03:16:42.652Z,98.132324
2019-04-30T03:17:41.832Z,98.132324
2019-04-30T03:17:53.666Z,98.132324
2019-04-30T03:18:52.895Z,98.278809
2019-04-30T03:19:52.109Z,98.236084
2019-04-30T03:20:52.272Z,98.278809
2019-04-30T03:22:03.290Z,98.236084
2019-04-30T03:23:02.568Z,98.236084
2019-04-30T03:24:13.540Z,98.236084
2019-04-30T03:25:12.846Z,98.236084
2019-04-30T03:26:12.875Z,98.236084
2019-04-30T03:26:23.924Z,98.236084
2019-04-30T03:27:24.736Z,98.236084
2019-04-30T03:28:22.509Z,98.175049
2019-04-30T03:29:33.531Z,98.175049
2019-04-30T03:30:32.714Z,98.071289
2019-04-30T03:31:32.893Z,98.071289
2019-04-30T03:32:36.565Z,98.071289
2019-04-30T03:32:50.102Z,98.071289
2019-04-30T03:33:33.114Z,98.071289
2019-04-30T03:34:43.482Z,97.973633
2019-04-30T03:35:47.549Z,97.869873
2019-04-30T03:36:41.921Z,97.766113
2019-04-30T03:36:53.764Z,97.766113
2019-04-30T03:37:52.967Z,97.766113
2019-04-30T03:38:52.171Z,97.766113
2019-04-30T03:40:03.317Z,97.766113
2019-04-30T03:41:03.579Z,97.869873
2019-04-30T03:42:02.809Z,97.869873
2019-04-30T03:43:03.021Z,97.869873
2019-04-30T03:43:13.785Z,97.869873
2019-04-30T03:44:21.171Z,97.766113
2019-04-30T03:45:12.227Z,97.766113
2019-04-30T03:46:23.283Z,97.766113
2019-04-30T03:47:22.505Z,97.662354
2019-04-30T03:48:33.528Z,97.766113
2019-04-30T03:49:32.825Z,97.766113
2019-04-30T03:50:48.461Z,97.869873
2019-04-30T03:51:32.338Z,97.869873
2019-04-30T03:52:43.414Z,97.869873
2019-04-30T03:53:42.887Z,97.869873
2019-04-30T03:54:41.917Z,97.869873
2019-04-30T03:54:53.756Z,97.869873
2019-04-30T03:55:52.982Z,97.766113
2019-04-30T03:56:52.214Z,97.766113
2019-04-30T03:58:03.235Z,97.766113
2019-04-30T03:59:02.456Z,97.662354
2019-04-30T04:00:13.529Z,97.558594
2019-04-30T04:01:12.873Z,97.454834
2019-04-30T04:02:12.701Z,97.357178
2019-04-30T04:03:23.186Z,97.357178
2019-04-30T04:04:22.384Z,97.253418
2019-04-30T04:05:33.489Z,97.149658
2019-04-30T04:06:32.787Z,97.045898
2019-04-30T04:07:32.003Z,96.942139
2019-04-30T04:07:43.836Z,96.942139
2019-04-30T04:08:43.420Z,96.942139
2019-04-30T04:09:42.258Z,96.734619
2019-04-30T04:10:53.324Z,96.636963
2019-04-30T04:11:52.508Z,96.533203
2019-04-30T04:13:03.618Z,96.325684
2019-04-30T04:14:02.929Z,96.118164
2019-04-30T04:15:03.833Z,96.118164
2019-04-30T04:16:13.131Z,96.020508
2019-04-30T04:17:12.432Z,95.916748
2019-04-30T04:18:23.501Z,95.404053
2019-04-30T04:19:22.709Z,95.404053
2019-04-30T04:20:21.923Z,95.404053
2019-04-30T04:20:33.753Z,95.404053
2019-04-30T04:21:32.899Z,95.300293
2019-04-30T04:22:32.129Z,95.300293
2019-04-30T04:23:43.171Z,95.196533
2019-04-30T04:24:42.375Z,95.196533
2019-04-30T04:25:53.398Z,95.300293
2019-04-30T04:26:52.598Z,95.404053
2019-04-30T04:27:51.817Z,95.404053
2019-04-30T04:28:03.656Z,95.404053
2019-04-30T04:29:02.836Z,95.404053
2019-04-30T04:30:02.028Z,95.404053
2019-04-30T04:30:13.873Z,95.404053
2019-04-30T04:31:13.064Z,95.196533
2019-04-30T04:32:12.292Z,95.092773
2019-04-30T04:33:23.315Z,95.092773
2019-04-30T04:34:22.497Z,94.989014
2019-04-30T04:35:22.674Z,94.989014
2019-04-30T04:36:22.005Z,94.989014
2019-04-30T04:36:33.846Z,94.989014
2019-04-30T04:37:22.182Z,94.989014
2019-04-30T04:38:33.204Z,94.683838
2019-04-30T04:39:32.394Z,94.580078
2019-04-30T04:40:43.454Z,94.580078
2019-04-30T04:41:44.221Z,94.683838
2019-04-30T04:42:41.818Z,94.580078
2019-04-30T04:42:53.658Z,94.580078
2019-04-30T04:43:42.018Z,94.580078
2019-04-30T04:43:53.900Z,94.580078
2019-04-30T04:44:53.090Z,94.580078
2019-04-30T04:45:52.275Z,94.683838
2019-04-30T04:47:03.323Z,94.683838
2019-04-30T04:48:02.597Z,94.580078
2019-04-30T04:49:13.594Z,94.476318
2019-04-30T04:50:12.797Z,94.268799
2019-04-30T04:51:27.564Z,93.963623
2019-04-30T04:51:34.226Z,93.859863
2019-04-30T04:52:12.165Z,93.548584
2019-04-30T04:53:12.439Z,93.347168
2019-04-30T04:54:23.497Z,93.035889
2019-04-30T04:55:22.648Z,93.035889
2019-04-30T04:56:21.845Z,93.243408
2019-04-30T04:56:33.684Z,93.347168
2019-04-30T04:57:32.870Z,93.548584
2019-04-30T04:58:32.053Z,93.859863
2019-04-30T04:58:43.884Z,93.859863
2019-04-30T04:59:32.019Z,93.963623
2019-04-30T04:59:43.856Z,94.067383
2019-04-30T05:00:43.095Z,94.067383
2019-04-30T05:01:42.281Z,94.067383
2019-04-30T05:02:53.305Z,93.963623
2019-04-30T05:03:52.562Z,93.548584
2019-04-30T05:04:52.749Z,93.548584
2019-04-30T05:05:51.944Z,93.444824
2019-04-30T05:06:03.781Z,93.347168
2019-04-30T05:07:02.950Z,92.932129
2019-04-30T05:08:02.164Z,92.730713
2019-04-30T05:09:13.254Z,92.730713
2019-04-30T05:10:12.474Z,92.828369
2019-04-30T05:11:23.491Z,92.932129
2019-04-30T05:12:22.677Z,93.035889
2019-04-30T05:13:22.203Z,92.932129
2019-04-30T05:14:33.243Z,93.035889
2019-04-30T05:15:32.464Z,93.243408
2019-04-30T05:16:43.511Z,93.347168
2019-04-30T05:17:42.702Z,93.347168
2019-04-30T05:18:41.901Z,93.444824
2019-04-30T05:18:53.742Z,93.444824
2019-04-30T05:19:52.974Z,93.444824
2019-04-30T05:20:52.231Z,93.243408
2019-04-30T05:22:03.235Z,93.243408
2019-04-30T05:23:02.426Z,93.096924
2019-04-30T05:24:13.503Z,92.889404
2019-04-30T05:25:12.733Z,92.889404
2019-04-30T05:26:12.086Z,92.993164
2019-04-30T05:26:23.922Z,92.993164
2019-04-30T05:27:23.130Z,92.993164
2019-04-30T05:28:22.406Z,91.864014
2019-04-30T05:29:33.469Z,91.491699
2019-04-30T05:30:32.699Z,91.491699
2019-04-30T05:31:32.935Z,91.290283
2019-04-30T05:32:32.172Z,91.394043
2019-04-30T05:33:43.209Z,91.491699
2019-04-30T05:34:43.497Z,91.699219
2019-04-30T05:35:42.745Z,91.699219
2019-04-30T05:36:41.977Z,91.699219
2019-04-30T05:36:53.812Z,91.699219
2019-04-30T05:37:53.005Z,91.906738
2019-04-30T05:38:52.206Z,91.967773
2019-04-30T05:40:03.311Z,91.760254
2019-04-30T05:41:02.680Z,91.760254
2019-04-30T05:42:03.203Z,91.864014
2019-04-30T05:43:02.506Z,91.760254
2019-04-30T05:45:02.092Z,91.143799
2019-04-30T05:46:14.127Z,90.83252
2019-04-30T05:47:12.652Z,90.83252
2019-04-30T05:48:12.143Z,90.936279
2019-04-30T05:49:23.321Z,90.875244
2019-04-30T05:50:22.745Z,91.290283
2019-04-30T05:51:21.996Z,91.448975
2019-04-30T05:51:33.837Z,91.448975
2019-04-30T05:52:22.196Z,91.351318
2019-04-30T05:53:33.245Z,91.448975
2019-04-30T05:54:32.423Z,91.448975
2019-04-30T05:55:43.475Z,91.040039
2019-04-30T05:56:42.839Z,90.734863
2019-04-30T05:57:52.979Z,90.631104
2019-04-30T05:57:56.314Z,90.631104
2019-04-30T05:58:42.074Z,90.83252
2019-04-30T05:58:53.902Z,90.83252
2019-04-30T05:59:53.201Z,90.936279
2019-04-30T06:00:52.437Z,90.216064
2019-04-30T06:02:03.455Z,90.014648
2019-04-30T06:03:02.652Z,90.319824
2019-04-30T06:04:02.836Z,90.734863
2019-04-30T06:05:02.043Z,90.795898
2019-04-30T06:05:13.878Z,90.588379
2019-04-30T06:06:13.225Z,89.562988
2019-04-30T06:07:12.442Z,89.086914
2019-04-30T06:08:23.457Z,89.599609
2019-04-30T06:09:30.919Z,89.703369
2019-04-30T06:10:21.974Z,89.807129
2019-04-30T06:10:33.804Z,89.910889
2019-04-30T06:11:33.005Z,90.179443
2019-04-30T06:12:32.211Z,89.660645
2019-04-30T06:13:43.238Z,89.764404
2019-04-30T06:14:48.783Z,89.971924
2019-04-30T06:15:53.547Z,90.075684
2019-04-30T06:16:52.739Z,89.459229
2019-04-30T06:18:00.201Z,89.251709
2019-04-30T06:18:11.404Z,89.147949
2019-04-30T06:18:52.108Z,89.044189
2019-04-30T06:20:03.143Z,89.355469
2019-04-30T06:21:02.372Z,89.459229
2019-04-30T06:22:13.414Z,89.251709
2019-04-30T06:23:12.628Z,88.122559
2019-04-30T06:24:11.812Z,87.817383
2019-04-30T06:24:23.653Z,87.817383
2019-04-30T06:25:30.830Z,87.817383
2019-04-30T06:26:23.135Z,87.365723
2019-04-30T06:27:22.324Z,87.365723
2019-04-30T06:28:33.358Z,87.158203
2019-04-30T06:29:32.548Z,87.463379
2019-04-30T06:30:43.623Z,88.183594
2019-04-30T06:31:43.271Z,88.183594
2019-04-30T06:32:42.028Z,88.183594
2019-04-30T06:32:53.867Z,88.183594
2019-04-30T06:33:53.046Z,87.982178
2019-04-30T06:34:52.252Z,87.878418
2019-04-30T06:36:03.300Z,88.391113
2019-04-30T06:37:02.536Z,88.903809
2019-04-30T06:38:13.553Z,88.079834
2019-04-30T06:39:12.762Z,87.982178
2019-04-30T06:40:11.944Z,88.079834
2019-04-30T06:40:23.789Z,88.079834
2019-04-30T06:41:22.988Z,88.183594
2019-04-30T06:42:22.166Z,87.670898
2019-04-30T06:43:33.210Z,87.365723
2019-04-30T06:44:37.301Z,86.950684
2019-04-30T06:45:43.421Z,86.749268
2019-04-30T06:46:42.638Z,87.054443
2019-04-30T06:47:41.815Z,87.463379
2019-04-30T06:47:53.786Z,87.463379
2019-04-30T06:48:52.950Z,87.261963
2019-04-30T06:49:52.168Z,87.158203
2019-04-30T06:51:03.200Z,86.334229
2019-04-30T06:52:02.383Z,86.236572
2019-04-30T06:53:02.587Z,86.749268
2019-04-30T06:54:13.605Z,86.499023
2019-04-30T06:55:12.786Z,87.219238
2019-04-30T06:56:11.978Z,86.810303
2019-04-30T06:56:23.876Z,86.706543
2019-04-30T06:57:23.069Z,86.810303
2019-04-30T06:58:22.244Z,87.017822
2019-04-30T06:59:33.319Z,87.017822
2019-04-30T07:00:33.528Z,87.426758
2019-04-30T07:01:31.813Z,87.322998
2019-04-30T07:01:43.653Z,86.810303
2019-04-30T07:02:42.914Z,86.297607
2019-04-30T07:03:42.106Z,86.499023
2019-04-30T07:04:53.119Z,86.499023
2019-04-30T07:05:52.311Z,86.358643
2019-04-30T07:07:03.325Z,86.767578
2019-04-30T07:08:09.178Z,87.280273
2019-04-30T07:08:55.500Z,88.000488
2019-04-30T07:09:03.651Z,87.896729
2019-04-30T07:10:02.805Z,86.566162
2019-04-30T07:11:07.367Z,86.151123
2019-04-30T07:11:13.838Z,86.053467
2019-04-30T07:12:22.808Z,85.229492
2019-04-30T07:13:12.194Z,85.229492
2019-04-30T07:14:23.260Z,85.845947
2019-04-30T07:15:22.449Z,85.949707
2019-04-30T07:16:22.648Z,85.949707
2019-04-30T07:17:21.832Z,85.845947
2019-04-30T07:17:33.670Z,85.742188
2019-04-30T07:18:32.875Z,85.906982
2019-04-30T07:19:50.074Z,85.803223
2019-04-30T07:20:34.074Z,85.906982
2019-04-30T07:21:36.326Z,84.985352
2019-04-30T07:22:49.583Z,84.783936
2019-04-30T07:23:43.594Z,84.16748
2019-04-30T07:24:43.645Z,84.332275
2019-04-30T07:25:42.834Z,84.741211
2019-04-30T07:26:42.001Z,85.870361
2019-04-30T07:26:54.601Z,85.870361
2019-04-30T07:27:53.173Z,85.253906
2019-04-30T07:28:55.030Z,84.741211
2019-04-30T07:30:03.348Z,84.0271
2019-04-30T07:31:11.231Z,82.69043
2019-04-30T07:32:13.562Z,83.306885
2019-04-30T07:33:12.778Z,83.514404
2019-04-30T07:34:11.993Z,82.385254
2019-04-30T07:34:23.840Z,82.385254
2019-04-30T07:35:12.178Z,82.897949
2019-04-30T07:36:23.195Z,82.177734
2019-04-30T07:37:24.614Z,82.116699
2019-04-30T07:38:22.509Z,81.872559
2019-04-30T07:39:23.380Z,82.897949
2019-04-30T07:40:21.921Z,82.385254
2019-04-30T07:40:33.760Z,82.385254
2019-04-30T07:41:32.946Z,83.099365
2019-04-30T07:42:36.402Z,83.203125
2019-04-30T07:43:43.176Z,80.639648
2019-04-30T07:44:42.413Z,80.541992
2019-04-30T07:45:42.615Z,80.682373
2019-04-30T07:46:53.617Z,81.80542
2019-04-30T07:47:52.815Z,82.629395
2019-04-30T07:48:51.992Z,82.897949
2019-04-30T07:49:03.837Z,82.897949
2019-04-30T07:50:03.066Z,83.099365
2019-04-30T07:51:02.269Z,82.897949
2019-04-30T07:52:02.920Z,82.58667
2019-04-30T07:53:13.564Z,81.768799
2019-04-30T07:54:12.629Z,81.939697
2019-04-30T07:55:11.838Z,81.835938
2019-04-30T07:55:23.674Z,81.835938
2019-04-30T07:56:27.383Z,81.939697
2019-04-30T07:57:22.026Z,81.793213
2019-04-30T07:57:33.877Z,81.896973
2019-04-30T07:58:33.073Z,82.208252
2019-04-30T07:59:32.282Z,81.384277
2019-04-30T08:00:43.385Z,80.36499
2019-04-30T08:01:57.724Z,80.975342
2019-04-30T08:02:37.048Z,81.860352
2019-04-30T08:02:43.855Z,81.756592
2019-04-30T08:03:43.165Z,81.079102
2019-04-30T08:04:42.092Z,80.633545
2019-04-30T08:05:53.237Z,81.347656
2019-04-30T08:06:52.395Z,80.224609
2019-04-30T08:08:17.547Z,80.224609
2019-04-30T08:09:03.620Z,78.588867
2019-04-30T08:10:02.756Z,78.552246
2019-04-30T08:11:01.953Z,79.779053
2019-04-30T08:11:23.731Z,79.876709
2019-04-30T08:12:02.232Z,79.266357
2019-04-30T08:13:09.961Z,79.876709
2019-04-30T08:14:13.283Z,78.961182
2019-04-30T08:15:12.474Z,79.162598
2019-04-30T08:16:23.622Z,79.162598
2019-04-30T08:17:22.803Z,79.980469
2019-04-30T08:18:21.980Z,79.266357
2019-04-30T08:18:33.813Z,78.240967
2019-04-30T08:19:33.024Z,78.857422
2019-04-30T08:20:32.173Z,80.389404
2019-04-30T08:21:43.238Z,79.266357
2019-04-30T08:22:42.471Z,79.980469
2019-04-30T08:23:43.625Z,80.151367
2019-04-30T08:24:42.804Z,78.448486
2019-04-30T08:25:41.996Z,79.467773
2019-04-30T08:25:53.823Z,79.876709
2019-04-30T08:26:53.023Z,77.423096
2019-04-30T08:27:52.259Z,77.630615
2019-04-30T08:29:03.286Z,78.961182
2019-04-30T08:30:02.471Z,79.742432
2019-04-30T08:31:02.657Z,79.431152
2019-04-30T08:32:01.890Z,79.125977
2019-04-30T08:32:13.719Z,79.125977
2019-04-30T08:34:13.227Z,78.167725
2019-04-30T08:35:12.423Z,78.070068
2019-04-30T08:36:23.460Z,78.78418
2019-04-30T08:37:23.614Z,78.57666
2019-04-30T08:38:22.997Z,77.661133
2019-04-30T08:39:22.206Z,77.557373
2019-04-30T08:40:33.258Z,77.148438
2019-04-30T08:41:33.434Z,78.167725
2019-04-30T08:42:34.214Z,78.070068
2019-04-30T08:43:31.840Z,78.167725
2019-04-30T08:43:43.676Z,78.375244
2019-04-30T08:44:32.018Z,79.089355
2019-04-30T08:44:43.859Z,78.985596
2019-04-30T08:45:43.021Z,76.776123
2019-04-30T08:46:42.213Z,76.263428
2019-04-30T08:47:53.231Z,76.263428
2019-04-30T08:48:53.744Z,76.605225
2019-04-30T08:50:03.744Z,76.605225
2019-04-30T08:51:02.724Z,78.588867
2019-04-30T08:52:01.925Z,80.834961
2019-04-30T08:52:13.924Z,81.04248
2019-04-30T08:53:12.956Z,79.711914
2019-04-30T08:54:12.185Z,81.92749
2019-04-30T08:55:16.296Z,81.103516
2019-04-30T08:56:23.373Z,80.69458
2019-04-30T08:57:22.543Z,80.456543
2019-04-30T08:58:33.560Z,80.560303
2019-04-30T08:59:21.958Z,79.742432
2019-04-30T08:59:33.806Z,79.534912
2019-04-30T09:00:32.985Z,78.924561
2019-04-30T09:01:32.183Z,79.431152
2019-04-30T09:02:43.198Z,78.308105
2019-04-30T09:03:43.389Z,78.479004
2019-04-30T09:04:43.190Z,77.79541
2019-04-30T09:05:42.387Z,77.966309
2019-04-30T09:06:53.412Z,78.68042
2019-04-30T09:07:52.611Z,78.070068
2019-04-30T09:08:51.828Z,76.531982
2019-04-30T09:09:03.661Z,76.635742
2019-04-30T09:10:04.755Z,76.672363
2019-04-30T09:11:02.096Z,78.78418
2019-04-30T09:12:02.263Z,76.940918
2019-04-30T09:13:13.291Z,79.394531
2019-04-30T09:14:12.547Z,78.948975
2019-04-30T09:15:23.592Z,76.190186
2019-04-30T09:16:22.826Z,75.714111
2019-04-30T09:17:21.988Z,76.330566
2019-04-30T09:17:33.832Z,76.940918
2019-04-30T09:18:32.991Z,77.966309
2019-04-30T09:19:32.173Z,75.579834
2019-04-30T09:20:43.282Z,77.520752
2019-04-30T09:21:43.459Z,77.929688
2019-04-30T09:22:43.637Z,77.996826
2019-04-30T09:23:49.579Z,75.848389
2019-04-30T09:24:42.000Z,74.932861
2019-04-30T09:24:53.825Z,74.627686
2019-04-30T09:25:53.060Z,75.238037
2019-04-30T09:26:52.240Z,75.714111
2019-04-30T09:28:04.481Z,76.220703
2019-04-30T09:29:02.472Z,76.904297
2019-04-30T09:30:13.505Z,76.391602
2019-04-30T09:31:12.682Z,77.374268
2019-04-30T09:32:11.904Z,80.023193
2019-04-30T09:32:23.805Z,79.925537
2019-04-30T09:33:22.996Z,78.69873
2019-04-30T09:34:22.183Z,78.90625
2019-04-30T09:35:33.217Z,77.374268
2019-04-30T09:36:32.411Z,76.965332
2019-04-30T09:37:43.498Z,79.174805
2019-04-30T09:38:31.863Z,79.272461
2019-04-30T09:38:43.698Z,79.174805
2019-04-30T09:39:42.894Z,76.623535
2019-04-30T09:40:43.074Z,76.116943
2019-04-30T09:41:42.271Z,75.097656
2019-04-30T09:42:53.310Z,75.775146
2019-04-30T09:43:52.670Z,77.301025
2019-04-30T09:44:53.949Z,76.99585
2019-04-30T09:45:03.696Z,77.709961
2019-04-30T09:46:14.717Z,75.57373
2019-04-30T09:47:03.072Z,75.775146
2019-04-30T09:48:02.257Z,75.506592
2019-04-30T09:49:13.315Z,74.89624
2019-04-30T09:50:12.509Z,76.831055
2019-04-30T09:51:24.626Z,76.831055
2019-04-30T09:52:22.776Z,73.571777
2019-04-30T09:53:22.053Z,74.993896
2019-04-30T09:53:33.780Z,76.013184
2019-04-30T09:54:33.133Z,74.79248
2019-04-30T09:55:32.171Z,72.753906
2019-04-30T09:56:43.205Z,74.688721
2019-04-30T09:57:42.379Z,76.116943
2019-04-30T09:58:42.576Z,76.318359
2019-04-30T09:59:41.832Z,75.976562
2019-04-30T09:59:53.658Z,75.671387
2019-04-30T10:00:52.834Z,73.126221
2019-04-30T10:01:52.036Z,73.022461
2019-04-30T10:02:03.873Z,72.821045
2019-04-30T10:03:03.256Z,73.431396
2019-04-30T10:04:03.632Z,75.775146
2019-04-30T10:05:03.088Z,76.043701
2019-04-30T10:06:13.543Z,74.316406
2019-04-30T10:07:01.878Z,75.738525
2019-04-30T10:07:13.716Z,75.946045
2019-04-30T10:08:12.916Z,74.621582
2019-04-30T10:09:13.107Z,73.498535
2019-04-30T10:10:12.368Z,73.498535
2019-04-30T10:11:23.399Z,74.316406
2019-04-30T10:12:22.565Z,72.857666
2019-04-30T10:13:33.581Z,70.922852
2019-04-30T10:14:32.744Z,72.44873
2019-04-30T10:15:31.962Z,74.279785
2019-04-30T10:15:43.804Z,73.87085
2019-04-30T10:16:43.152Z,73.87085
2019-04-30T10:17:42.332Z,74.481201
2019-04-30T10:18:53.357Z,76.11084
2019-04-30T10:19:53.552Z,77.600098
2019-04-30T10:20:52.739Z,75.671387
2019-04-30T10:21:51.956Z,77.905273
2019-04-30T10:22:03.791Z,78.314209
2019-04-30T10:23:02.973Z,78.582764
2019-04-30T10:24:12.209Z,73.498535
2019-04-30T10:25:13.174Z,71.569824
2019-04-30T10:26:12.361Z,72.991943